Time;durP1;ratioP1;P1;durP2;ratioP2;P2;SDS_P1;SDS_P2;PMS_P1;PMS_P2;Temp;Humidity;BMP_temperature;BMP_pressure;BME280_temperature;BME280_humidity;BME280_pressure;Samples;Min_cycle;Max_cycle;Signal;HPM_P1;HPM_P2
2022/04/22 00:01:03;;;;;;;5.20;4.03;;;;;;;17.33;33.19;100440.28;5016724;28;20073;-87
2022/04/22 00:03:30;;;;;;;5.82;3.90;;;;;;;17.31;33.47;100448.69;5003780;28;20477;-86
2022/04/22 00:05:57;;;;;;;7.28;4.20;;;;;;;17.29;33.30;100447.13;5002517;28;20060;-86
2022/04/22 00:08:52;;;;;;;4.82;3.67;;;;;;;17.27;33.65;100447.28;4991877;28;20057;-87
2022/04/22 00:11:31;;;;;;;6.10;3.97;;;;;;;17.26;33.22;100439.19;5005807;28;20444;-87
2022/04/22 00:14:08;;;;;;;6.60;4.38;;;;;;;17.23;33.41;100436.75;4998763;28;20050;-87
2022/04/22 00:16:36;;;;;;;5.15;3.85;;;;;;;17.22;33.53;100441.38;5011245;28;20123;-86
2022/04/22 00:19:03;;;;;;;5.68;3.83;;;;;;;17.22;33.27;100435.03;5004628;28;20053;-86
2022/04/22 00:21:32;;;;;;;5.60;4.03;;;;;;;17.21;33.51;100439.69;5011363;28;20053;-87
2022/04/22 00:24:01;;;;;;;5.18;3.75;;;;;;;17.21;33.73;100436.06;5012201;28;20141;-86
2022/04/22 00:26:28;;;;;;;6.20;3.90;;;;;;;17.21;33.51;100430.59;5005655;28;20030;-87
2022/04/22 00:28:59;;;;;;;6.00;3.92;;;;;;;17.21;33.52;100425.09;5027470;28;20128;-87
2022/04/22 00:31:28;;;;;;;5.72;4.15;;;;;;;17.21;33.64;100428.72;5008368;28;20493;-87
2022/04/22 00:33:59;;;;;;;5.80;3.92;;;;;;;17.25;33.95;100426.50;5002593;28;20063;-87
2022/04/22 00:36:28;;;;;;;6.00;4.35;;;;;;;17.24;33.47;100422.88;5001038;28;20046;-87
2022/04/22 00:39:05;;;;;;;6.57;4.18;;;;;;;17.28;34.35;100434.44;5009258;28;20046;-87
2022/04/22 00:41:32;;;;;;;6.60;4.35;;;;;;;17.22;33.80;100427.66;5005880;28;20477;-87
2022/04/22 00:43:59;;;;;;;6.35;4.38;;;;;;;17.23;33.86;100431.25;4974150;28;20073;-87
2022/04/22 00:46:25;;;;;;;5.75;4.20;;;;;;;17.21;34.04;100431.44;5010272;28;20053;-87
2022/04/22 00:48:54;;;;;;;5.40;4.50;;;;;;;17.19;33.88;100428.00;5007368;28;20149;-87
2022/04/22 00:51:24;;;;;;;5.93;4.53;;;;;;;17.19;33.68;100430.72;5010054;28;20127;-88
2022/04/22 00:53:56;;;;;;;6.00;4.18;;;;;;;17.17;34.17;100426.41;4996977;28;20080;-87
2022/04/22 00:56:24;;;;;;;4.90;3.90;;;;;;;17.12;33.81;100424.16;4998469;28;20054;-88
2022/04/22 00:58:52;;;;;;;5.07;3.75;;;;;;;17.13;33.71;100419.53;5009541;28;20050;-87
2022/04/22 01:01:19;;;;;;;4.90;4.13;;;;;;;17.13;33.99;100416.78;5010895;28;20060;-87
2022/04/22 01:12:09;;;;;;;6.50;4.50;;;;;;;17.02;34.17;100417.84;5005177;28;20046;-87
2022/04/22 01:14:37;;;;;;;5.15;3.88;;;;;;;17.00;33.91;100404.28;5003657;28;20056;-87
2022/04/22 01:17:05;;;;;;;5.60;4.47;;;;;;;16.97;34.15;100398.25;5006330;28;20050;-87
2022/04/22 01:19:32;;;;;;;6.38;4.80;;;;;;;16.95;34.33;100405.78;5005941;28;20046;-88
2022/04/22 01:22:00;;;;;;;6.35;4.32;;;;;;;16.94;34.25;100404.91;4992549;28;20046;-87
2022/04/22 01:24:27;;;;;;;6.22;4.65;;;;;;;16.92;34.32;100397.84;4991521;28;20047;-87
2022/04/22 01:26:55;;;;;;;6.43;4.70;;;;;;;16.86;34.29;100395.72;5003554;28;20569;-87
2022/04/22 01:29:24;;;;;;;6.43;4.30;;;;;;;16.82;34.43;100392.41;5014638;28;20060;-85
2022/04/22 01:31:50;;;;;;;6.50;4.40;;;;;;;16.81;34.56;100387.09;5010253;28;20038;-87
2022/04/22 01:34:17;;;;;;;6.47;4.80;;;;;;;16.78;34.64;100385.53;5003358;28;20117;-87
2022/04/22 01:36:44;;;;;;;5.93;4.47;;;;;;;16.77;34.44;100386.56;5010387;28;20069;-87
2022/04/22 01:39:11;;;;;;;8.10;4.68;;;;;;;16.74;34.70;100379.50;4999845;28;20081;-87
2022/04/22 01:41:38;;;;;;;5.95;4.80;;;;;;;16.73;34.85;100383.25;5011528;28;20050;-89
2022/04/22 01:44:04;;;;;;;6.22;4.38;;;;;;;16.70;35.00;100375.34;5018039;28;20072;-87
2022/04/22 01:46:31;;;;;;;6.07;4.40;;;;;;;16.67;34.46;100374.78;5015628;28;20069;-87
2022/04/22 01:48:58;;;;;;;7.15;5.00;;;;;;;16.65;34.93;100368.56;5009606;28;20058;-87
2022/04/22 01:51:28;;;;;;;5.68;4.45;;;;;;;16.62;34.90;100375.25;5011210;28;20058;-87
2022/04/22 01:54:11;;;;;;;6.35;4.43;;;;;;;16.61;34.97;100372.66;5090019;27;20507;-73
2022/04/22 01:56:38;;;;;;;6.72;4.80;;;;;;;16.57;34.89;100366.56;5038089;28;20099;-73
2022/04/22 01:59:05;;;;;;;5.88;4.32;;;;;;;16.54;34.84;100366.03;5055853;28;20077;-73
2022/04/22 02:01:32;;;;;;;5.90;4.55;;;;;;;16.53;35.00;100372.53;5064831;28;20474;-73
2022/04/22 02:03:58;;;;;;;6.90;4.90;;;;;;;16.48;35.00;100381.19;5061136;28;20040;-73
2022/04/22 02:06:25;;;;;;;6.78;4.85;;;;;;;16.46;35.20;100385.09;5063429;28;20102;-73
2022/04/22 02:08:52;;;;;;;7.07;4.60;;;;;;;16.44;35.15;100376.16;5064898;28;20052;-73
2022/04/22 02:11:18;;;;;;;5.38;4.55;;;;;;;16.43;35.45;100385.41;5061166;28;20083;-73
2022/04/22 02:13:45;;;;;;;7.53;4.88;;;;;;;16.42;35.24;100378.19;5077416;27;20057;-73
2022/04/22 02:16:12;;;;;;;6.35;5.00;;;;;;;16.40;35.52;100375.59;5064602;28;20550;-73
2022/04/22 02:18:41;;;;;;;7.10;4.78;;;;;;;16.38;35.20;100374.03;5062447;28;20398;-73
2022/04/22 02:21:10;;;;;;;6.88;4.78;;;;;;;16.38;35.66;100372.16;5067494;28;20052;-73
2022/04/22 02:23:36;;;;;;;6.32;4.70;;;;;;;16.34;35.49;100371.59;5069299;28;20136;-73
2022/04/22 02:26:04;;;;;;;7.30;4.90;;;;;;;16.34;35.54;100370.72;5063289;28;20481;-72
2022/04/22 02:28:34;;;;;;;6.47;4.72;;;;;;;16.31;35.34;100369.16;5067435;28;20044;-70
2022/04/22 02:31:06;;;;;;;7.50;5.00;;;;;;;16.33;35.99;100369.00;5060971;28;20110;-72
2022/04/22 02:33:34;;;;;;;7.20;5.22;;;;;;;16.28;35.64;100369.47;5065612;28;20036;-72
2022/04/22 02:36:01;;;;;;;8.70;5.45;;;;;;;16.26;35.62;100362.41;5073202;28;20048;-72
2022/04/22 02:38:29;;;;;;;7.57;5.35;;;;;;;16.24;35.66;100368.03;5061061;28;20111;-72
2022/04/22 02:46:30;;;;;;;7.40;5.18;;;;;;;16.15;36.25;100354.38;5068783;28;20118;-72
2022/04/22 02:48:58;;;;;;;8.32;5.15;;;;;;;16.14;36.18;100358.16;5064145;28;20529;-72
2022/04/22 02:51:25;;;;;;;7.70;5.07;;;;;;;16.14;35.95;100352.66;5062746;28;20052;-72
2022/04/22 02:53:53;;;;;;;10.90;5.65;;;;;;;16.13;36.11;100349.06;5058138;28;20122;-72
2022/04/22 02:56:21;;;;;;;6.75;4.82;;;;;;;16.13;36.05;100346.31;5064309;28;20103;-72
2022/04/22 02:58:48;;;;;;;7.80;5.20;;;;;;;16.14;36.38;100347.19;5058650;28;20053;-72
2022/04/22 03:01:16;;;;;;;6.47;4.90;;;;;;;16.13;36.10;100349.06;5062029;28;20049;-72
2022/04/22 03:03:46;;;;;;;6.70;4.80;;;;;;;16.17;36.48;100349.59;5062632;28;20065;-72
2022/04/22 03:06:13;;;;;;;7.45;5.00;;;;;;;16.15;36.42;100351.63;5052735;28;20052;-71
2022/04/22 03:08:40;;;;;;;7.22;4.57;;;;;;;16.17;36.12;100357.81;5052502;28;20049;-72
2022/04/22 03:11:06;;;;;;;6.97;4.30;;;;;;;16.19;35.93;100350.34;5047045;28;20049;-73
2022/04/22 03:13:33;;;;;;;7.55;4.78;;;;;;;16.20;36.22;100352.94;5042158;28;20047;-73
2022/04/22 03:16:02;;;;;;;7.07;4.45;;;;;;;16.22;36.06;100352.78;5056689;28;20045;-73
2022/04/22 03:18:28;;;;;;;7.28;4.63;;;;;;;16.23;36.04;100346.25;5049983;28;20062;-73
2022/04/22 03:20:56;;;;;;;6.90;4.75;;;;;;;16.24;35.78;100350.72;5048316;28;20076;-73
2022/04/22 03:23:23;;;;;;;7.60;4.90;;;;;;;16.24;36.12;100342.50;5048282;28;20182;-73
2022/04/22 03:25:49;;;;;;;6.35;4.78;;;;;;;16.23;35.86;100338.91;5030324;28;20534;-73
2022/04/22 03:28:16;;;;;;;7.78;4.97;;;;;;;16.23;35.99;100347.13;5029414;28;20124;-73
2022/04/22 03:30:42;;;;;;;6.63;4.47;;;;;;;16.24;35.85;100343.38;5022067;28;20049;-73
2022/04/22 03:33:09;;;;;;;7.82;4.90;;;;;;;16.22;36.01;100337.22;5029795;28;20095;-73
2022/04/22 03:35:35;;;;;;;6.70;4.32;;;;;;;16.23;35.90;100336.16;5032409;28;20110;-73
2022/04/22 03:38:02;;;;;;;7.10;4.95;;;;;;;16.23;36.13;100330.69;5025712;28;20081;-73
2022/04/22 03:40:29;;;;;;;7.72;5.18;;;;;;;16.23;35.86;100332.56;5041855;28;20072;-73
2022/04/22 03:42:55;;;;;;;7.95;5.28;;;;;;;16.22;35.94;100336.34;5057173;28;20460;-72
2022/04/22 03:45:22;;;;;;;7.07;5.10;;;;;;;16.22;36.11;100330.88;5052180;28;20061;-73
2022/04/22 03:47:49;;;;;;;7.32;5.30;;;;;;;16.22;36.14;100331.72;5046169;28;20427;-73
2022/04/22 03:50:15;;;;;;;7.82;5.22;;;;;;;16.20;35.95;100331.00;5042999;28;20087;-73
2022/04/22 03:52:42;;;;;;;9.75;5.38;;;;;;;16.20;36.18;100327.41;5058932;28;20139;-73
2022/04/22 03:55:09;;;;;;;7.00;5.15;;;;;;;16.19;36.13;100326.53;5049269;28;20144;-73
2022/04/22 04:00:21;;;;;;;7.88;5.65;;;;;;;16.16;35.88;100323.22;5050155;28;20255;-73
2022/04/22 04:02:48;;;;;;;9.27;5.90;;;;;;;16.14;36.01;100320.63;5050631;28;20622;-73
2022/04/22 04:05:15;;;;;;;9.23;5.72;;;;;;;16.14;35.96;100319.81;5051654;28;20147;-73
2022/04/22 04:07:42;;;;;;;8.50;5.40;;;;;;;16.13;35.97;100320.81;5050033;28;20548;-73
2022/04/22 04:15:59;;;;;;;9.10;5.95;;;;;;;16.07;36.01;100315.91;5051149;28;20509;-73
2022/04/22 04:18:33;;;;;;;8.57;6.07;;;;;;;16.05;36.18;100318.84;5050412;28;20052;-73
2022/04/22 04:23:47;;;;;;;9.77;6.75;;;;;;;15.98;36.26;100307.59;5050826;28;20131;-73
2022/04/22 04:26:15;;;;;;;11.32;7.28;;;;;;;15.97;36.31;100311.38;5053626;28;20131;-73
2022/04/22 04:28:43;;;;;;;11.18;7.57;;;;;;;15.97;36.52;100313.25;5048602;28;20084;-73
2022/04/22 04:31:13;;;;;;;10.18;7.55;;;;;;;15.94;36.32;100305.31;5050430;28;20075;-73
2022/04/22 04:33:41;;;;;;;11.65;7.78;;;;;;;15.92;36.52;100307.34;5056817;28;20059;-73
2022/04/22 04:36:14;;;;;;;11.52;7.75;;;;;;;15.86;36.83;100308.81;5048651;28;20045;-73
2022/04/22 04:38:42;;;;;;;10.90;7.50;;;;;;;15.84;36.71;100309.97;5052230;28;20160;-73
2022/04/22 04:41:09;;;;;;;11.95;8.25;;;;;;;15.80;37.17;100316.75;5056289;28;20408;-73
2022/04/22 04:43:38;;;;;;;12.30;8.88;;;;;;;15.73;37.28;100313.72;5050997;28;20068;-73
2022/04/22 04:46:05;;;;;;;15.40;8.75;;;;;;;15.73;37.14;100318.38;5054857;28;20091;-74
2022/04/22 04:48:33;;;;;;;10.93;8.10;;;;;;;15.70;37.36;100315.91;5052811;28;20132;-74
2022/04/22 04:51:00;;;;;;;11.98;8.38;;;;;;;15.67;37.38;100310.72;5048269;28;20131;-74
2022/04/22 04:53:27;;;;;;;13.52;8.60;;;;;;;15.68;37.51;100312.47;5056496;28;20041;-73
2022/04/22 04:55:53;;;;;;;12.20;8.23;;;;;;;15.64;37.34;100314.66;5043602;28;20142;-73
2022/04/22 04:58:21;;;;;;;11.93;8.55;;;;;;;15.62;37.66;100311.19;5033022;28;20045;-73
2022/04/22 05:00:48;;;;;;;11.85;8.13;;;;;;;15.60;37.61;100313.22;5050383;28;20127;-73
2022/04/22 05:03:15;;;;;;;12.60;8.27;;;;;;;15.59;37.75;100308.75;5045480;28;20056;-72
2022/04/22 05:05:42;;;;;;;12.50;8.57;;;;;;;15.56;37.88;100309.06;5047416;28;20127;-73
2022/04/22 05:08:09;;;;;;;13.13;9.00;;;;;;;15.55;37.76;100313.66;5040658;28;20135;-73
2022/04/22 05:10:37;;;;;;;11.75;8.25;;;;;;;15.56;37.90;100303.59;5041755;28;20049;-73
2022/04/22 05:13:04;;;;;;;13.50;8.68;;;;;;;15.56;38.12;100311.78;5044123;28;20055;-73
2022/04/22 05:15:55;;;;;;;13.57;8.75;;;;;;;15.54;37.93;100303.72;5048680;28;20055;-72
2022/04/22 05:18:22;;;;;;;12.82;8.45;;;;;;;15.58;37.90;100302.41;5046636;28;20131;-72
2022/04/22 05:20:49;;;;;;;11.23;8.00;;;;;;;15.58;38.15;100298.81;5049496;28;20110;-73
2022/04/22 05:23:15;;;;;;;14.68;9.52;;;;;;;15.61;38.10;100295.78;5046771;28;20049;-73
2022/04/22 05:25:42;;;;;;;13.40;8.93;;;;;;;15.64;38.25;100300.97;5047400;28;20470;-73
2022/04/22 05:28:08;;;;;;;13.77;8.60;;;;;;;15.66;38.38;100304.41;5047959;28;20488;-72
2022/04/22 05:33:20;;;;;;;12.68;7.85;;;;;;;15.76;38.26;100301.63;5047171;28;20047;-73
2022/04/22 05:35:46;;;;;;;15.07;9.70;;;;;;;15.80;38.23;100300.34;5047718;28;20051;-72
2022/04/22 05:38:15;;;;;;;12.23;8.20;;;;;;;15.85;38.51;100300.75;5048350;28;20541;-73
2022/04/22 05:40:44;;;;;;;13.38;8.82;;;;;;;15.88;38.40;100304.06;5021738;28;20125;-73
2022/04/22 05:43:11;;;;;;;12.82;8.75;;;;;;;15.94;38.31;100297.97;5028407;28;20132;-73
2022/04/22 05:45:37;;;;;;;12.52;8.88;;;;;;;15.99;38.31;100297.50;5023364;28;20054;-73
2022/04/22 05:48:04;;;;;;;13.88;9.25;;;;;;;16.05;38.52;100296.06;5028394;28;20057;-73
2022/04/22 05:50:31;;;;;;;12.80;9.05;;;;;;;16.09;38.69;100292.84;5026341;28;20135;-72
2022/04/22 05:52:58;;;;;;;11.43;8.68;;;;;;;16.16;38.16;100306.81;5027898;28;20060;-73
2022/04/22 05:57:53;;;;;;;13.20;8.65;;;;;;;16.25;38.37;100297.66;5025513;28;20049;-70
2022/04/22 06:00:23;;;;;;;13.13;8.85;;;;;;;16.31;38.26;100294.31;5041379;28;20040;-69
2022/04/22 06:02:51;;;;;;;12.68;9.48;;;;;;;16.36;38.64;100302.97;5066442;28;20152;-68
2022/04/22 06:05:20;;;;;;;12.10;8.80;;;;;;;16.41;38.14;100294.25;5044271;28;20171;-68
2022/04/22 06:07:47;;;;;;;13.50;9.40;;;;;;;16.46;38.35;100297.44;5067588;28;20095;-68
2022/04/22 06:10:33;;;;;;;12.30;8.38;;;;;;;16.50;38.28;100296.94;5065825;28;20093;-69
2022/04/22 06:13:00;;;;;;;13.43;8.90;;;;;;;16.54;38.28;100292.91;5056684;28;20498;-69
2022/04/22 06:15:28;;;;;;;12.80;8.90;;;;;;;16.59;38.54;100286.94;5063134;28;20084;-69
2022/04/22 06:17:55;;;;;;;13.00;9.00;;;;;;;16.64;38.46;100292.84;5064329;28;20496;-70
2022/04/22 06:20:21;;;;;;;12.75;8.88;;;;;;;16.67;38.51;100298.03;5062834;28;20140;-69
2022/04/22 06:22:48;;;;;;;12.43;8.38;;;;;;;16.72;38.22;100290.19;5066304;28;20155;-69
2022/04/22 06:25:15;;;;;;;13.73;9.35;;;;;;;16.80;38.31;100292.19;5054185;28;20147;-69
2022/04/22 06:27:43;;;;;;;13.27;9.43;;;;;;;16.84;38.19;100293.56;5062124;28;20127;-68
2022/04/22 06:30:19;;;;;;;12.10;8.77;;;;;;;16.90;38.73;100287.44;5068211;28;20102;-69
2022/04/22 06:32:47;;;;;;;12.70;8.60;;;;;;;16.93;38.53;100289.88;5064691;28;20053;-69
2022/04/22 06:35:15;;;;;;;13.40;9.13;;;;;;;16.98;38.58;100290.28;5058226;28;20131;-69
2022/04/22 06:38:03;;;;;;;11.95;8.50;;;;;;;17.05;38.44;100284.00;5061721;28;20127;-69
2022/04/22 06:46:00;;;;;;;14.88;9.48;;;;;;;17.25;37.99;100270.09;4982481;28;20078;-68
2022/04/22 06:48:30;;;;;;;13.90;10.10;;;;;;;17.29;37.93;100277.00;4975618;28;20141;-68
2022/04/22 06:51:15;;;;;;;13.27;9.63;;;;;;;17.31;37.72;100273.06;4992369;28;20058;-68
2022/04/22 06:53:41;;;;;;;15.20;10.30;;;;;;;17.29;37.53;100274.28;4967260;28;20066;-68
2022/04/22 06:56:08;;;;;;;15.68;10.60;;;;;;;17.24;37.80;100282.09;4986256;28;20827;-68
2022/04/22 06:58:40;;;;;;;14.20;10.52;;;;;;;17.24;37.94;100288.44;4986715;28;20073;-68
2022/04/22 07:01:07;;;;;;;14.38;10.18;;;;;;;17.16;37.88;100271.91;4984644;28;20054;-69
2022/04/22 07:03:55;;;;;;;13.07;10.00;;;;;;;17.10;38.12;100298.13;4981536;28;20507;-69
2022/04/22 07:06:22;;;;;;;13.77;10.52;;;;;;;17.06;37.98;100284.84;4993740;28;20140;-69
2022/04/22 07:08:49;;;;;;;13.30;9.65;;;;;;;17.04;37.84;100289.66;4992689;28;20534;-69
2022/04/22 07:11:24;;;;;;;13.10;10.32;;;;;;;17.00;38.32;100289.09;4987107;28;20056;-69
2022/04/22 07:13:56;;;;;;;13.68;10.13;;;;;;;16.91;38.58;100289.19;4990494;28;20062;-69
2022/04/22 07:16:23;;;;;;;14.68;10.45;;;;;;;16.88;38.65;100289.50;4987145;28;20137;-69
2022/04/22 07:18:53;;;;;;;15.13;10.05;;;;;;;16.85;38.75;100287.06;5045404;28;20044;-69
2022/04/22 07:21:21;;;;;;;12.05;9.25;;;;;;;16.82;38.30;100284.63;5043665;28;20128;-70
2022/04/22 07:23:48;;;;;;;13.35;9.85;;;;;;;16.79;38.59;100279.47;5065978;28;20056;-69
2022/04/22 07:26:17;;;;;;;13.63;10.60;;;;;;;16.79;38.69;100277.59;5072275;28;20182;-69
2022/04/22 07:28:48;;;;;;;13.93;10.57;;;;;;;16.78;38.94;100275.00;5049278;28;20128;-68
2022/04/22 07:31:18;;;;;;;14.63;9.88;;;;;;;16.74;38.74;100271.72;5078465;28;20044;-69
2022/04/22 07:33:46;;;;;;;14.13;10.50;;;;;;;16.71;38.97;100274.78;5066652;28;20060;-69
2022/04/22 07:36:13;;;;;;;13.82;10.20;;;;;;;16.73;38.79;100269.97;5069493;28;20130;-69
2022/04/22 07:38:40;;;;;;;14.13;10.40;;;;;;;16.71;39.08;100266.56;5069970;28;20424;-69
2022/04/22 07:41:08;;;;;;;13.20;10.32;;;;;;;16.70;38.96;100265.69;5070415;28;20052;-69
2022/04/22 07:49:05;;;;;;;11.80;9.20;;;;;;;16.68;38.92;100267.72;5074898;28;20131;-69
2022/04/22 07:51:32;;;;;;;12.88;9.30;;;;;;;16.68;39.02;100267.72;5070239;28;20135;-69
2022/04/22 07:54:00;;;;;;;12.10;9.25;;;;;;;16.70;39.20;100256.59;5060384;28;20079;-69
2022/04/22 07:56:27;;;;;;;14.23;9.05;;;;;;;16.73;39.07;100270.84;5070693;28;20142;-69
2022/04/22 07:58:56;;;;;;;11.45;8.45;;;;;;;16.76;39.19;100274.28;5065726;28;20595;-68
2022/04/22 08:01:22;;;;;;;11.43;8.68;;;;;;;16.78;39.30;100273.13;5070638;28;20152;-68
2022/04/22 08:03:49;;;;;;;10.50;7.82;;;;;;;16.84;39.06;100269.75;5064268;28;20068;-69
2022/04/22 08:06:15;;;;;;;13.15;10.23;;;;;;;16.88;39.20;100273.94;5071135;28;20154;-69
2022/04/22 08:08:42;;;;;;;11.38;8.55;;;;;;;16.92;38.94;100267.09;5065866;28;20048;-68
2022/04/22 08:11:08;;;;;;;10.82;8.07;;;;;;;16.98;38.78;100263.72;5052374;28;20162;-68
2022/04/22 08:13:35;;;;;;;10.13;7.25;;;;;;;17.00;38.58;100250.72;5061960;28;20078;-70
2022/04/22 08:16:03;;;;;;;10.00;7.30;;;;;;;17.06;38.62;100254.69;5062027;28;20408;-69
2022/04/22 08:18:30;;;;;;;9.77;6.80;;;;;;;17.11;38.91;100258.69;5064764;28;20052;-69
2022/04/22 08:20:56;;;;;;;10.38;7.50;;;;;;;17.17;38.89;100245.34;5052023;28;20460;-68
2022/04/22 08:23:23;;;;;;;9.75;7.05;;;;;;;17.30;38.44;100254.00;5072097;28;20150;-68
2022/04/22 08:25:50;;;;;;;9.82;7.25;;;;;;;17.38;38.80;100245.84;5059114;28;20143;-69
2022/04/22 08:28:16;;;;;;;8.57;6.47;;;;;;;17.50;38.47;100252.78;5048714;28;20048;-68
2022/04/22 08:30:43;;;;;;;9.63;6.78;;;;;;;17.61;38.43;100260.78;5062805;28;20080;-69
2022/04/22 08:33:09;;;;;;;10.02;6.93;;;;;;;17.74;38.36;100249.38;5072142;28;20052;-68
2022/04/22 08:35:36;;;;;;;9.75;6.90;;;;;;;17.89;38.46;100250.47;5060320;28;20052;-68
2022/04/22 08:38:05;;;;;;;9.77;7.03;;;;;;;18.04;37.94;100253.44;5065419;28;20068;-68
2022/04/22 08:40:34;;;;;;;8.88;6.38;;;;;;;18.22;37.75;100252.34;5065072;28;20127;-69
2022/04/22 08:43:01;;;;;;;9.30;6.78;;;;;;;18.38;37.30;100250.66;5061254;28;20110;-68
2022/04/22 08:45:28;;;;;;;7.35;5.90;;;;;;;18.48;36.98;100251.38;5052478;28;20485;-68
2022/04/22 08:50:44;;;;;;;7.80;5.72;;;;;;;18.69;36.65;100253.72;5067158;28;20040;-68
2022/04/22 08:53:17;;;;;;;8.68;6.00;;;;;;;18.76;36.03;100250.13;5067300;28;20072;-69
2022/04/22 08:55:45;;;;;;;7.45;5.70;;;;;;;18.80;35.99;100245.13;5061107;28;20090;-69
2022/04/22 08:58:13;;;;;;;7.07;5.43;;;;;;;18.88;35.78;100245.13;5059290;28;20072;-69
2022/04/22 09:00:41;;;;;;;8.45;6.20;;;;;;;18.92;35.30;100230.88;5042917;28;20083;-68
2022/04/22 09:03:09;;;;;;;7.65;5.70;;;;;;;18.94;35.41;100237.03;5072495;28;20480;-68
2022/04/22 09:05:36;;;;;;;9.38;6.18;;;;;;;18.93;35.50;100235.34;5063398;28;20559;-69
2022/04/22 09:08:06;;;;;;;8.38;5.93;;;;;;;18.99;35.39;100239.28;5065286;28;20132;-69
2022/04/22 09:10:35;;;;;;;8.15;6.20;;;;;;;18.95;35.18;100236.00;5049377;28;20119;-69
2022/04/22 09:13:03;;;;;;;6.38;5.30;;;;;;;18.93;35.16;100237.22;5062084;28;20475;-69
2022/04/22 09:15:34;;;;;;;8.57;5.72;;;;;;;18.97;34.93;100233.09;5044450;28;20132;-68
2022/04/22 09:18:24;;;;;;;7.22;5.32;;;;;;;18.92;35.23;100230.88;5041969;28;20051;-68
2022/04/22 09:20:53;;;;;;;7.82;6.03;;;;;;;18.90;34.99;100199.91;5059859;28;20130;-68
2022/04/22 09:23:33;;;;;;;8.10;6.00;;;;;;;18.94;34.82;100216.94;5060202;28;20080;-69
2022/04/22 09:26:02;;;;;;;8.57;5.47;;;;;;;18.91;34.82;100220.03;5060069;28;20079;-68
2022/04/22 09:28:29;;;;;;;8.32;5.88;;;;;;;18.89;35.03;100219.34;5065668;28;20063;-69
2022/04/22 09:30:57;;;;;;;8.23;5.75;;;;;;;18.90;35.01;100218.31;5062836;28;20080;-69
2022/04/22 09:33:24;;;;;;;7.40;5.22;;;;;;;18.86;34.89;100203.19;5057165;28;20056;-69
2022/04/22 09:44:24;;;;;;;7.63;5.15;;;;;;;18.88;35.26;100206.59;5052190;28;20048;-69
2022/04/22 09:47:12;;;;;;;7.30;5.13;;;;;;;18.86;34.83;100200.44;5069051;28;20048;-69
2022/04/22 09:49:43;;;;;;;7.78;4.82;;;;;;;18.86;34.88;100190.28;5037131;28;20066;-68
2022/04/22 09:52:10;;;;;;;7.57;5.55;;;;;;;18.94;34.40;100183.94;5070266;28;20144;-69
2022/04/22 09:54:38;;;;;;;6.85;4.80;;;;;;;18.96;34.77;100187.34;5061237;28;20076;-68
2022/04/22 09:57:25;;;;;;;7.10;4.80;;;;;;;18.96;34.63;100179.97;5056894;28;20052;-68
2022/04/22 09:59:52;;;;;;;6.50;4.72;;;;;;;19.00;34.60;100184.09;5040739;28;20055;-68
2022/04/22 10:02:25;;;;;;;6.35;4.30;;;;;;;19.06;34.09;100178.91;5059719;28;20086;-68
2022/04/22 10:04:54;;;;;;;;;;;;;;;18.79;34.40;100174.63;5064239;28;20052;-68
2022/04/22 10:07:26;;;;;;;6.80;4.53;;;;;;;19.05;34.17;100172.56;5059819;28;19920;-68
2022/04/22 10:09:54;;;;;;;6.15;4.05;;;;;;;19.11;34.10;100171.84;5068867;28;20051;-67
2022/04/22 10:12:23;;;;;;;6.28;4.25;;;;;;;19.18;33.61;100166.53;5067083;28;20127;-67
2022/04/22 10:14:53;;;;;;;7.53;4.30;;;;;;;19.22;33.39;100173.41;5054547;28;20136;-67
2022/04/22 10:17:23;;;;;;;6.10;4.47;;;;;;;19.23;33.51;100166.88;5068357;28;20048;-68
2022/04/22 10:19:53;;;;;;;6.65;4.15;;;;;;;19.26;33.37;100167.38;5066430;28;20105;-67
2022/04/22 10:22:20;;;;;;;6.82;4.50;;;;;;;19.29;32.96;100161.50;5066389;28;20425;-68
2022/04/22 10:24:46;;;;;;;6.03;4.05;;;;;;;19.33;33.11;100165.66;5049315;28;20135;-69
2022/04/22 10:27:14;;;;;;;6.45;4.32;;;;;;;19.38;32.96;100156.84;5060761;28;20051;-68
2022/04/22 10:29:42;;;;;;;6.78;4.43;;;;;;;19.41;32.99;100161.16;5044006;28;20056;-67
2022/04/22 10:32:11;;;;;;;5.78;4.10;;;;;;;19.46;32.85;100156.81;5065804;28;20488;-68
2022/04/22 10:34:43;;;;;;;5.93;4.00;;;;;;;19.52;32.26;100156.13;5057247;28;20052;-67
2022/04/22 10:37:31;;;;;;;5.65;4.15;;;;;;;19.57;31.86;100156.50;5067607;28;20052;-68
2022/04/22 10:39:58;;;;;;;5.40;3.88;;;;;;;19.58;32.32;100154.59;5064786;28;20073;-68
2022/04/22 10:42:34;;;;;;;6.28;3.90;;;;;;;19.67;32.26;100146.13;5068505;28;20165;-68
2022/04/22 10:47:50;;;;;;;5.53;3.50;;;;;;;19.77;31.97;100141.25;5067140;28;20056;-67
2022/04/22 10:50:34;;;;;;;4.95;3.80;;;;;;;19.89;31.19;100138.09;5046030;28;20098;-68
2022/04/22 10:53:04;;;;;;;5.22;3.38;;;;;;;19.95;31.74;100142.88;5046897;28;20049;-69
2022/04/22 10:55:40;;;;;;;5.35;4.07;;;;;;;20.03;31.26;100138.19;5063057;28;20262;-68
2022/04/22 10:58:27;;;;;;;5.10;3.72;;;;;;;20.06;31.50;100134.22;5062031;28;20477;-70
2022/04/22 11:00:57;;;;;;;5.72;3.88;;;;;;;20.16;30.99;100128.47;5067580;28;20153;-70
2022/04/22 11:03:25;;;;;;;5.13;3.70;;;;;;;20.19;30.82;100128.09;5057050;28;20060;-70
2022/04/22 11:05:59;;;;;;;4.88;3.60;;;;;;;20.27;30.37;100123.38;5068427;28;20048;-70
2022/04/22 11:08:29;;;;;;;4.40;3.45;;;;;;;20.33;30.90;100119.06;5059225;28;20099;-70
2022/04/22 11:10:58;;;;;;;5.07;3.38;;;;;;;20.38;30.88;100108.38;5067289;28;20552;-69
2022/04/22 11:13:38;;;;;;;5.93;4.18;;;;;;;20.47;29.84;100112.78;5071333;28;20048;-69
2022/04/22 11:16:11;;;;;;;6.28;4.80;;;;;;;20.53;30.78;100114.78;5066726;28;20044;-69
2022/04/22 11:18:40;;;;;;;7.63;6.03;;;;;;;20.57;30.63;100113.41;5054319;28;20052;-69
2022/04/22 11:21:19;;;;;;;6.85;5.63;;;;;;;20.63;30.34;100098.84;5069905;28;20051;-69
2022/04/22 11:23:52;;;;;;;6.53;5.20;;;;;;;20.62;30.97;100099.03;5052708;28;20048;-69
2022/04/22 11:26:19;;;;;;;8.52;6.22;;;;;;;20.64;30.60;100105.22;5076148;28;20080;-69
2022/04/22 11:28:46;;;;;;;7.60;5.88;;;;;;;20.63;30.61;100100.75;5063741;28;20106;-69
2022/04/22 11:31:14;;;;;;;7.25;5.40;;;;;;;20.64;30.71;100091.44;5071892;28;20086;-69
2022/04/22 11:33:40;;;;;;;6.63;5.05;;;;;;;20.64;30.63;100089.53;5068735;28;20052;-69
2022/04/22 11:36:09;;;;;;;6.53;4.93;;;;;;;20.63;30.85;100084.19;5059820;28;20059;-69
2022/04/22 11:38:44;;;;;;;6.40;4.90;;;;;;;20.66;30.35;100090.22;5077951;28;20079;-69
2022/04/22 11:41:12;;;;;;;7.40;5.15;;;;;;;20.68;30.24;100090.88;5069389;28;20087;-71
2022/04/22 11:43:38;;;;;;;6.82;5.70;;;;;;;20.69;30.51;100077.94;5065599;28;20522;-71
2022/04/22 11:46:05;;;;;;;7.90;5.15;;;;;;;20.65;30.49;100096.78;5051329;28;20131;-71
2022/04/22 11:48:32;;;;;;;7.25;5.20;;;;;;;20.71;30.31;100078.59;5063997;28;20048;-71
2022/04/22 11:50:59;;;;;;;7.13;5.15;;;;;;;20.67;30.70;100075.34;5049611;28;20082;-71
2022/04/22 11:53:32;;;;;;;6.47;4.57;;;;;;;20.67;30.66;100082.81;5079175;28;20044;-70
2022/04/22 11:56:01;;;;;;;6.40;5.57;;;;;;;20.69;30.10;100080.69;5095872;22;20075;-73
2022/04/22 11:58:28;;;;;;;6.50;4.95;;;;;;;20.71;30.54;100073.09;5074097;28;20567;-74
2022/04/22 12:06:31;;;;;;;6.07;4.75;;;;;;;20.80;30.13;100069.22;5065937;28;20049;-73
2022/04/22 12:09:01;;;;;;;6.45;4.43;;;;;;;20.81;30.55;100066.28;5059390;28;20045;-73
2022/04/22 12:11:29;;;;;;;5.10;3.70;;;;;;;20.88;30.04;100064.47;5074806;28;20484;-73
2022/04/22 12:13:56;;;;;;;6.78;5.00;;;;;;;20.91;30.00;100063.25;5068215;28;20326;-73
2022/04/22 12:16:26;;;;;;;6.05;4.50;;;;;;;21.00;29.86;100052.97;5072026;28;20445;-72
2022/04/22 12:18:54;;;;;;;6.13;4.68;;;;;;;21.04;30.08;100051.53;5079711;28;20052;-72
2022/04/22 12:21:22;;;;;;;5.70;4.43;;;;;;;21.08;29.54;100058.41;5067786;28;20075;-72
2022/04/22 12:23:59;;;;;;;5.88;4.10;;;;;;;21.13;29.49;100051.25;5067253;28;20090;-72
2022/04/22 12:26:36;;;;;;;7.15;4.72;;;;;;;21.14;29.94;100047.47;5065061;28;20529;-72
2022/04/22 12:29:17;;;;;;;6.95;5.10;;;;;;;21.20;29.69;100043.09;5067897;28;20067;-72
2022/04/22 12:31:54;;;;;;;7.05;4.90;;;;;;;21.18;29.96;100050.72;5067818;28;20101;-73